Cambridge, MA (02138)

7:41 AM EDT on August 31, 2014 (GMT -0400)
Porter Square | Change Station
CLOSE
Current Station
Personal Weather Station
Location: Cambridge, MA
Elevation: 47 ft
Nearby Weather Stations

Elev 47 ft 42.39 °N, 71.12 °W | Updated 11 minutes ago

Partly Cloudy
Partly Cloudy
71.1 °F
Feels Like 71.1 °F
N
0.0
Wind Variable Wind from North
Gusts 0.0 mph

Today
High -- | Low -- °F
--% Chance of Precip.
Yesterday
High -- | Low -- °F
Precip. -- in
6:08 AM 7:20 PM
Waxing Crescent, 30% visible
Pressure 30.08 in
Visibility 10.0 miles
Clouds Few 3200 ft
Mostly Cloudy 25000 ft
Dew Point 68 °F
Humidity 90%
Rainfall 0.00 in
Snow Depth Not available.
UV 0 out of 12
Pollen 8.80 out of 12
PM2.5 Good
Flu Activity Not available.
METAR KBOS 311054Z COR 22009KT 10SM FEW032 BKN250 21/18 A3008 RMK AO2 SLP185 T02110183 $

More Conditions Fewer Conditions

Pressure 30.08 in
Visibility 10.0 miles
Clouds Few 3200 ft
Mostly Cloudy 25000 ft
Dew Point 68 °F
Humidity 90%
Rainfall 0.00 in
Snow Depth Not available.
UV 0 out of 12
Pollen 8.80 out of 12
PM2.5 Good
Flu Activity Not available.
METAR KBOS 311054Z COR 22009KT 10SM FEW032 BKN250 21/18 A3008 RMK AO2 SLP185 T02110183 $

More Conditions Fewer Conditions

10-Day Weather Forecast

Almanac

Astronomy

Aug. 31, 2014 Rise Set
Actual Time 6:08 AM EDT 7:20 PM EDT
Civil Twilight 5:39 AM EDT 7:49 PM EDT
Nautical Twilight 5:04 AM EDT 8:23 PM EDT
Astronomical Twilight 4:28 AM EDT 9:00 PM EDT
Moon 11:59 AM EDT 10:25 PM EDT
Length of Visible Light 14h 09m
Length of Day
13h 11m
Tomorrow will be 2m 44s shorter.
Waxing Crescent, 30% of the Moon is Illuminated
Today
Waxing Crescent
Sep 2
First Quarter
Sep 8
Full
Sep 15
Last Quarter
Sep 24
New

Today's Extremes

State Highs State Lows

Community

WunderPhotos

Upload Photos

1,748,848 photos uploaded!

Nearby

Air Quality

  Air Quality AQ Index Pollutant
Yesterday Good
OZONE
Yesterday Good
PM2.5
Current Good
PM2.5
Sunday Good
PM2.5
Sunday Good
OZONE
Monday Moderate
PM2.5
Monday Good
OZONE
Tuesday Moderate
PM2.5
Tuesday Moderate
OZONE

Snow Depth

Station Depth Elevation
No new snow has been reported.

Earthquake Activity

City Distance Mag. Time & Date
No recent earthquake activity has been reported nearby.
Minimum magnitude displayed is 2.5.

Coastal Water Temperatures

Place Temperature
Boston, MA 68.0 °F
Providence, RI 71.1 °F
Fall River, MA 73.0 °F
Conimicut Light, RI 71.1 °F

Nearby Weather Stations